MSC Kim — 3EPZ — position and weather

sailwx.info

Track history (hours):
 
Tides and Currents Weather Stations Pressure Air Temp Water Temp Dewpoint Dewpoint Depression Visibility Wind Speed Wind Dir Waves Ship Positions

MSC Kim

Last reported at 2017-Oct-21 17:50 UTC. Time now 2017-Oct-22 23:07 UTC.
Position N 25°53' W 079°26'.

Length 265 m; draft 9.3 m.

Type: Ship (hazmat cat A). MMSI: 356205000.

Date/timePositionNaut miles runAvg speedWind from/ knotsBaromVisibWave heightAir tempDewpointWater temp
2017-Oct-21 17:50N 25°53' W 079°26'721.4
2017-Oct-21 17:30N 25°46' W 079°29'1321.8
2017-Oct-21 16:56N 25°34' W 079°33'97419.9
2017-Oct-19 15:59N 19°12' W 095°42'1021.9
2017-Oct-19 15:31N 19°12' W 095°53'1019.0
2017-Oct-19 15:00N 19°11' W 096°03'5 9.2
2017-Oct-19 14:30N 19°12' W 096°08'0 0.8
2017-Oct-19 13:58N 19°13' W 096°08'0 0.0
2017-Oct-19 13:28N 19°13' W 096°08'0 0.0
2017-Oct-19 12:58N 19°13' W 096°08'0 0.0
2017-Oct-19 12:28N 19°13' W 096°08'0 0.0
2017-Oct-19 11:58N 19°13' W 096°08'0 0.0
2017-Oct-19 11:25N 19°13' W 096°08'0 0.0
2017-Oct-19 10:58N 19°13' W 096°08'0 0.0
2017-Oct-19 10:28N 19°13' W 096°08'0 0.0
2017-Oct-19 09:58N 19°13' W 096°08'0 0.0
2017-Oct-19 09:28N 19°13' W 096°08'0 0.0
2017-Oct-19 08:58N 19°13' W 096°08'0 0.0
2017-Oct-19 08:25N 19°13' W 096°08'0 0.0
2017-Oct-19 07:55N 19°13' W 096°08'0 0.0
2017-Oct-19 07:28N 19°13' W 096°08'0 0.0
2017-Oct-19 06:55N 19°13' W 096°08'0 0.0
2017-Oct-19 06:28N 19°13' W 096°08'0 0.0
2017-Oct-19 05:58N 19°13' W 096°08'0 0.0
2017-Oct-19 05:28N 19°13' W 096°08'0 0.0
2017-Oct-19 04:58N 19°13' W 096°08'0 0.0
2017-Oct-19 04:28N 19°13' W 096°08'0 0.0
2017-Oct-19 03:55N 19°13' W 096°08'0 0.0
2017-Oct-19 03:28N 19°13' W 096°08'0 0.0
2017-Oct-19 02:55N 19°13' W 096°08'0 0.0
2017-Oct-19 02:28N 19°13' W 096°08'0 0.0
2017-Oct-19 01:58N 19°13' W 096°08'0 0.0
2017-Oct-19 01:28N 19°13' W 096°08'0 0.0
2017-Oct-19 00:58N 19°13' W 096°08'0 0.0
2017-Oct-19 00:28N 19°13' W 096°08'0 0.0
2017-Oct-18 23:58N 19°13' W 096°08'0 0.0
2017-Oct-18 23:28N 19°13' W 096°08'0 0.0
2017-Oct-18 22:58N 19°13' W 096°08'0 0.0
2017-Oct-18 22:25N 19°13' W 096°08'0 0.0
2017-Oct-18 21:55N 19°13' W 096°08'0 0.0
2017-Oct-18 21:28N 19°13' W 096°08'0 0.0
2017-Oct-18 20:58N 19°13' W 096°08'0 0.1
2017-Oct-18 20:30N 19°13' W 096°08'3 5.6
2017-Oct-18 20:01N 19°12' W 096°05'5 9.3
2017-Oct-18 19:30N 19°14' W 096°01'714.0
2017-Oct-18 19:00N 19°21' W 095°60'713.5
2017-Oct-18 18:30N 19°27' W 095°57'4 7.6
2017-Oct-18 18:01N 19°31' W 095°57'2 4.1
2017-Oct-18 17:30N 19°33' W 095°58'2 4.1
2017-Oct-18 17:01N 19°35' W 095°59'2 4.2
2017-Oct-18 16:30N 19°37' W 095°60'2 4.2
2017-Oct-18 15:57N 19°39' W 096°01'2 4.2
2017-Oct-18 15:29N 19°41' W 096°02'2 4.1
2017-Oct-18 15:00N 19°42' W 096°03'4 4.1
2017-Oct-18 13:58N 19°46' W 096°05'2 4.1
2017-Oct-18 13:31N 19°48' W 096°06'2 4.2
2017-Oct-18 13:00N 19°50' W 096°07'2 4.1
2017-Oct-18 12:30N 19°52' W 096°07'12 1.3
2017-Oct-18 03:07N 19°41' W 096°01'1 5.6
2017-Oct-18 03:00N 19°41' W 096°02'5 5.6
2017-Oct-18 02:11N 19°45' W 096°04'1 5.6
2017-Oct-18 01:59N 19°46' W 096°05'12 0.6
2017-Oct-17 06:34N 19°34' W 096°06'0 2.0
2017-Oct-17 06:30N 19°34' W 096°06'1 1.9
2017-Oct-17 05:58N 19°34' W 096°06'1 1.9
2017-Oct-17 05:27N 19°33' W 096°05'1 2.1
2017-Oct-17 05:00N 19°32' W 096°04'1 2.0
2017-Oct-17 04:22N 19°32' W 096°03'1 1.7
2017-Oct-17 03:56N 19°31' W 096°02'1 1.6
2017-Oct-17 03:10N 19°31' W 096°01'0 1.8
2017-Oct-17 02:58N 19°30' W 096°01'1 1.3
2017-Oct-17 02:17N 19°29' W 096°00'0 1.5
2017-Oct-17 02:01N 19°29' W 096°00'0 1.0
2017-Oct-17 01:31N 19°29' W 095°60'1 1.6
2017-Oct-17 00:59N 19°28' W 095°59'1 1.7
2017-Oct-17 00:29N 19°27' W 095°59'1 1.5
2017-Oct-17 00:00N 19°27' W 095°58'1 1.4
2017-Oct-16 23:26N 19°26' W 095°58'1 1.7
2017-Oct-16 23:00N 19°26' W 095°58'1 2.2
2017-Oct-16 22:30N 19°25' W 095°57'1 1.9
2017-Oct-16 22:01N 19°24' W 095°57'1 1.7
2017-Oct-16 21:30N 19°23' W 095°56'1 2.3
2017-Oct-16 21:00N 19°22' W 095°56'1 2.3
2017-Oct-16 20:30N 19°21' W 095°55'1 2.4
2017-Oct-16 20:00N 19°20' W 095°55'0 0.5
2017-Oct-16 19:30N 19°20' W 095°55'2 4.0
2017-Oct-16 19:01N 19°22' W 095°56'2 4.0
2017-Oct-16 18:30N 19°23' W 095°57'2 4.0
2017-Oct-16 18:01N 19°25' W 095°58'2 3.9
2017-Oct-16 17:31N 19°26' W 095°60'2 3.7
2017-Oct-16 17:00N 19°28' W 096°01'1 1.9
2017-Oct-16 16:29N 19°27' W 096°00'3 5.9
2017-Oct-16 16:00N 19°24' W 095°59'1 1.2
2017-Oct-16 15:30N 19°25' W 095°59'1 2.4
2017-Oct-16 15:00N 19°26' W 096°00'9 9.2
2017-Oct-16 14:00N 19°35' W 096°03'811.3
2017-Oct-16 13:17N 19°42' W 096°07'412.9
2017-Oct-16 12:59N 19°45' W 096°09'  
2017-Oct-13 14:20N 29°23' W 094°48'513.3
2017-Oct-13 13:57N 29°27' W 094°51'613.5
2017-Oct-13 13:30N 29°32' W 094°54'611.6
2017-Oct-13 13:00N 29°37' W 094°58'2 3.3
2017-Oct-13 12:29N 29°37' W 095°00'0 0.0
2017-Oct-13 11:59N 29°37' W 095°00'0 0.0
2017-Oct-13 11:29N 29°37' W 095°00'0 0.0
2017-Oct-13 10:59N 29°37' W 095°00'0 0.0
2017-Oct-13 10:29N 29°37' W 095°00'0 0.0
2017-Oct-13 09:59N 29°37' W 095°00'0 0.0
2017-Oct-13 09:29N 29°37' W 095°00'0 0.0
2017-Oct-13 08:59N 29°37' W 095°00'0 0.0
2017-Oct-13 08:29N 29°37' W 095°00'0 0.0
2017-Oct-13 07:59N 29°37' W 095°00'0 0.0
2017-Oct-13 07:29N 29°37' W 095°00'0 0.0
2017-Oct-13 06:59N 29°37' W 095°00'0 0.0
2017-Oct-13 06:29N 29°37' W 095°00'0 0.0
2017-Oct-13 05:59N 29°37' W 095°00'0 0.0
2017-Oct-13 05:29N 29°37' W 095°00'0 0.0
2017-Oct-13 04:56N 29°37' W 095°00'0 0.0
2017-Oct-13 04:29N 29°37' W 095°00'0 0.0
2017-Oct-13 03:59N 29°37' W 095°00'0 0.0
2017-Oct-13 03:29N 29°37' W 095°00'0 0.0
2017-Oct-13 02:59N 29°37' W 095°00'0 0.0
2017-Oct-13 02:29N 29°37' W 095°00'0 0.0
2017-Oct-13 01:59N 29°37' W 095°00'0 0.0
2017-Oct-13 01:29N 29°37' W 095°00'0 0.0
2017-Oct-13 00:59N 29°37' W 095°00'0 0.0
2017-Oct-13 00:29N 29°37' W 095°00'0 0.0
2017-Oct-12 23:59N 29°37' W 095°00'0 0.0
2017-Oct-12 23:29N 29°37' W 095°00'0 0.0
2017-Oct-12 22:59N 29°37' W 095°00'0 0.0
2017-Oct-12 22:29N 29°37' W 095°00'0 0.0
2017-Oct-12 21:59N 29°37' W 095°00'0 0.0
2017-Oct-12 21:29N 29°37' W 095°00'0 0.0
2017-Oct-12 20:59N 29°37' W 095°00'0 0.0
2017-Oct-12 20:29N 29°37' W 095°00'1 1.8
2017-Oct-12 20:00N 29°37' W 095°01'3 5.5
2017-Oct-12 19:30N 29°37' W 094°58'5 9.1
2017-Oct-12 19:00N 29°33' W 094°55'713.1
2017-Oct-12 18:30N 29°28' W 094°51'611.6
2017-Oct-12 18:00N 29°22' W 094°48'  
Track history (hours):
 
Tides and Currents Weather Stations Pressure Air Temp Water Temp Dewpoint Dewpoint Depression Visibility Wind Speed Wind Dir Waves Ship Positions

MSC Kim

Last reported at 2017-Oct-21 17:50 UTC. Time now 2017-Oct-22 23:07 UTC.
Position N 25°53' W 079°26'.

Length 265 m; draft 9.3 m.

Type: Ship (hazmat cat A). MMSI: 356205000.

Date/timePositionNaut miles runAvg speedWind from/ knotsBaromVisibWave heightAir tempDewpointWater temp
2017-Oct-21 17:50N 25°53' W 079°26'721.4
2017-Oct-21 17:30N 25°46' W 079°29'1321.8
2017-Oct-21 16:56N 25°34' W 079°33'97419.9
2017-Oct-19 15:59N 19°12' W 095°42'1021.9
2017-Oct-19 15:31N 19°12' W 095°53'1019.0
2017-Oct-19 15:00N 19°11' W 096°03'5 9.2
2017-Oct-19 14:30N 19°12' W 096°08'0 0.8
2017-Oct-19 13:58N 19°13' W 096°08'0 0.0
2017-Oct-19 13:28N 19°13' W 096°08'0 0.0
2017-Oct-19 12:58N 19°13' W 096°08'0 0.0
2017-Oct-19 12:28N 19°13' W 096°08'0 0.0
2017-Oct-19 11:58N 19°13' W 096°08'0 0.0
2017-Oct-19 11:25N 19°13' W 096°08'0 0.0
2017-Oct-19 10:58N 19°13' W 096°08'0 0.0
2017-Oct-19 10:28N 19°13' W 096°08'0 0.0
2017-Oct-19 09:58N 19°13' W 096°08'0 0.0
2017-Oct-19 09:28N 19°13' W 096°08'0 0.0
2017-Oct-19 08:58N 19°13' W 096°08'0 0.0
2017-Oct-19 08:25N 19°13' W 096°08'0 0.0
2017-Oct-19 07:55N 19°13' W 096°08'0 0.0
2017-Oct-19 07:28N 19°13' W 096°08'0 0.0
2017-Oct-19 06:55N 19°13' W 096°08'0 0.0
2017-Oct-19 06:28N 19°13' W 096°08'0 0.0
2017-Oct-19 05:58N 19°13' W 096°08'0 0.0
2017-Oct-19 05:28N 19°13' W 096°08'0 0.0
2017-Oct-19 04:58N 19°13' W 096°08'0 0.0
2017-Oct-19 04:28N 19°13' W 096°08'0 0.0
2017-Oct-19 03:55N 19°13' W 096°08'0 0.0
2017-Oct-19 03:28N 19°13' W 096°08'0 0.0
2017-Oct-19 02:55N 19°13' W 096°08'0 0.0
2017-Oct-19 02:28N 19°13' W 096°08'0 0.0
2017-Oct-19 01:58N 19°13' W 096°08'0 0.0
2017-Oct-19 01:28N 19°13' W 096°08'0 0.0
2017-Oct-19 00:58N 19°13' W 096°08'0 0.0
2017-Oct-19 00:28N 19°13' W 096°08'0 0.0
2017-Oct-18 23:58N 19°13' W 096°08'0 0.0
2017-Oct-18 23:28N 19°13' W 096°08'0 0.0
2017-Oct-18 22:58N 19°13' W 096°08'0 0.0
2017-Oct-18 22:25N 19°13' W 096°08'0 0.0
2017-Oct-18 21:55N 19°13' W 096°08'0 0.0
2017-Oct-18 21:28N 19°13' W 096°08'0 0.0
2017-Oct-18 20:58N 19°13' W 096°08'0 0.1
2017-Oct-18 20:30N 19°13' W 096°08'3 5.6
2017-Oct-18 20:01N 19°12' W 096°05'5 9.3
2017-Oct-18 19:30N 19°14' W 096°01'714.0
2017-Oct-18 19:00N 19°21' W 095°60'713.5
2017-Oct-18 18:30N 19°27' W 095°57'4 7.6
2017-Oct-18 18:01N 19°31' W 095°57'2 4.1
2017-Oct-18 17:30N 19°33' W 095°58'2 4.1
2017-Oct-18 17:01N 19°35' W 095°59'2 4.2
2017-Oct-18 16:30N 19°37' W 095°60'2 4.2
2017-Oct-18 15:57N 19°39' W 096°01'2 4.2
2017-Oct-18 15:29N 19°41' W 096°02'2 4.1
2017-Oct-18 15:00N 19°42' W 096°03'4 4.1
2017-Oct-18 13:58N 19°46' W 096°05'2 4.1
2017-Oct-18 13:31N 19°48' W 096°06'2 4.2
2017-Oct-18 13:00N 19°50' W 096°07'2 4.1
2017-Oct-18 12:30N 19°52' W 096°07'12 1.3
2017-Oct-18 03:07N 19°41' W 096°01'1 5.6
2017-Oct-18 03:00N 19°41' W 096°02'5 5.6
2017-Oct-18 02:11N 19°45' W 096°04'1 5.6
2017-Oct-18 01:59N 19°46' W 096°05'12 0.6
2017-Oct-17 06:34N 19°34' W 096°06'0 2.0
2017-Oct-17 06:30N 19°34' W 096°06'1 1.9
2017-Oct-17 05:58N 19°34' W 096°06'1 1.9
2017-Oct-17 05:27N 19°33' W 096°05'1 2.1
2017-Oct-17 05:00N 19°32' W 096°04'1 2.0
2017-Oct-17 04:22N 19°32' W 096°03'1 1.7
2017-Oct-17 03:56N 19°31' W 096°02'1 1.6
2017-Oct-17 03:10N 19°31' W 096°01'0 1.8
2017-Oct-17 02:58N 19°30' W 096°01'1 1.3
2017-Oct-17 02:17N 19°29' W 096°00'0 1.5
2017-Oct-17 02:01N 19°29' W 096°00'0 1.0
2017-Oct-17 01:31N 19°29' W 095°60'1 1.6
2017-Oct-17 00:59N 19°28' W 095°59'1 1.7
2017-Oct-17 00:29N 19°27' W 095°59'1 1.5
2017-Oct-17 00:00N 19°27' W 095°58'1 1.4
2017-Oct-16 23:26N 19°26' W 095°58'1 1.7
2017-Oct-16 23:00N 19°26' W 095°58'1 2.2
2017-Oct-16 22:30N 19°25' W 095°57'1 1.9
2017-Oct-16 22:01N 19°24' W 095°57'1 1.7
2017-Oct-16 21:30N 19°23' W 095°56'1 2.3
2017-Oct-16 21:00N 19°22' W 095°56'1 2.3
2017-Oct-16 20:30N 19°21' W 095°55'1 2.4
2017-Oct-16 20:00N 19°20' W 095°55'0 0.5
2017-Oct-16 19:30N 19°20' W 095°55'2 4.0
2017-Oct-16 19:01N 19°22' W 095°56'2 4.0
2017-Oct-16 18:30N 19°23' W 095°57'2 4.0
2017-Oct-16 18:01N 19°25' W 095°58'2 3.9
2017-Oct-16 17:31N 19°26' W 095°60'2 3.7
2017-Oct-16 17:00N 19°28' W 096°01'1 1.9
2017-Oct-16 16:29N 19°27' W 096°00'3 5.9
2017-Oct-16 16:00N 19°24' W 095°59'1 1.2
2017-Oct-16 15:30N 19°25' W 095°59'1 2.4
2017-Oct-16 15:00N 19°26' W 096°00'9 9.2
2017-Oct-16 14:00N 19°35' W 096°03'811.3
2017-Oct-16 13:17N 19°42' W 096°07'412.9
2017-Oct-16 12:59N 19°45' W 096°09'  
2017-Oct-13 14:20N 29°23' W 094°48'513.3
2017-Oct-13 13:57N 29°27' W 094°51'613.5
2017-Oct-13 13:30N 29°32' W 094°54'611.6
2017-Oct-13 13:00N 29°37' W 094°58'2 3.3
2017-Oct-13 12:29N 29°37' W 095°00'0 0.0
2017-Oct-13 11:59N 29°37' W 095°00'0 0.0
2017-Oct-13 11:29N 29°37' W 095°00'0 0.0
2017-Oct-13 10:59N 29°37' W 095°00'0 0.0
2017-Oct-13 10:29N 29°37' W 095°00'0 0.0
2017-Oct-13 09:59N 29°37' W 095°00'0 0.0
2017-Oct-13 09:29N 29°37' W 095°00'0 0.0
2017-Oct-13 08:59N 29°37' W 095°00'0 0.0
2017-Oct-13 08:29N 29°37' W 095°00'0 0.0
2017-Oct-13 07:59N 29°37' W 095°00'0 0.0
2017-Oct-13 07:29N 29°37' W 095°00'0 0.0
2017-Oct-13 06:59N 29°37' W 095°00'0 0.0
2017-Oct-13 06:29N 29°37' W 095°00'0 0.0
2017-Oct-13 05:59N 29°37' W 095°00'0 0.0
2017-Oct-13 05:29N 29°37' W 095°00'0 0.0
2017-Oct-13 04:56N 29°37' W 095°00'0 0.0
2017-Oct-13 04:29N 29°37' W 095°00'0 0.0
2017-Oct-13 03:59N 29°37' W 095°00'0 0.0
2017-Oct-13 03:29N 29°37' W 095°00'0 0.0
2017-Oct-13 02:59N 29°37' W 095°00'0 0.0
2017-Oct-13 02:29N 29°37' W 095°00'0 0.0
2017-Oct-13 01:59N 29°37' W 095°00'0 0.0
2017-Oct-13 01:29N 29°37' W 095°00'0 0.0
2017-Oct-13 00:59N 29°37' W 095°00'0 0.0
2017-Oct-13 00:29N 29°37' W 095°00'0 0.0
2017-Oct-12 23:59N 29°37' W 095°00'0 0.0
2017-Oct-12 23:29N 29°37' W 095°00'0 0.0
2017-Oct-12 22:59N 29°37' W 095°00'0 0.0
2017-Oct-12 22:29N 29°37' W 095°00'0 0.0
2017-Oct-12 21:59N 29°37' W 095°00'0 0.0
2017-Oct-12 21:29N 29°37' W 095°00'0 0.0
2017-Oct-12 20:59N 29°37' W 095°00'0 0.0
2017-Oct-12 20:29N 29°37' W 095°00'1 1.8
2017-Oct-12 20:00N 29°37' W 095°01'3 5.5
2017-Oct-12 19:30N 29°37' W 094°58'5 9.1
2017-Oct-12 19:00N 29°33' W 094°55'713.1
2017-Oct-12 18:30N 29°28' W 094°51'611.6
2017-Oct-12 18:00N 29°22' W 094°48'  

Dump ship's entire track history